createdAt,value
2017-07-31T00:01:26.225Z,96.70
2017-07-31T00:03:54.485Z,97.00
2017-07-31T00:06:22.736Z,96.80
2017-07-31T00:08:51.049Z,96.90
2017-07-31T00:11:19.327Z,96.90
2017-07-31T00:13:47.593Z,97.00
2017-07-31T00:16:15.907Z,97.00
2017-07-31T00:18:44.173Z,97.00
2017-07-31T00:21:12.436Z,96.90
2017-07-31T00:23:40.728Z,97.00
2017-07-31T00:26:09.001Z,97.10
2017-07-31T00:28:37.298Z,97.00
2017-07-31T00:31:05.553Z,97.10
2017-07-31T00:33:33.813Z,97.10
2017-07-31T00:36:02.112Z,97.30
2017-07-31T00:38:30.374Z,97.20
2017-07-31T00:40:58.633Z,97.00
2017-07-31T00:43:26.930Z,97.10
2017-07-31T00:45:55.197Z,97.20
2017-07-31T00:48:23.466Z,97.00
2017-07-31T00:50:51.770Z,97.10
2017-07-31T00:53:20.048Z,97.10
2017-07-31T00:55:48.332Z,97.10
2017-07-31T00:58:16.595Z,97.20
2017-07-31T01:00:44.913Z,97.40
2017-07-31T01:03:13.188Z,97.10
2017-07-31T01:05:41.448Z,96.90
2017-07-31T01:08:09.744Z,96.90
2017-07-31T01:10:38.004Z,97.30
2017-07-31T01:13:06.312Z,97.30
2017-07-31T01:15:34.585Z,97.50
2017-07-31T01:18:02.851Z,98.00
2017-07-31T01:20:31.149Z,98.10
2017-07-31T01:22:59.404Z,98.20
2017-07-31T01:25:27.666Z,98.20
2017-07-31T01:27:55.974Z,98.10
2017-07-31T01:30:24.236Z,98.00
2017-07-31T01:32:52.492Z,98.00
2017-07-31T01:35:20.803Z,98.10
2017-07-31T01:37:49.070Z,98.20
2017-07-31T01:40:17.328Z,98.30
2017-07-31T01:42:45.619Z,98.40
2017-07-31T01:45:13.897Z,98.40
2017-07-31T01:47:42.196Z,98.60
2017-07-31T01:50:10.468Z,98.20
2017-07-31T01:52:43.671Z,98.30
2017-07-31T01:55:11.920Z,98.30
2017-07-31T01:57:40.190Z,98.10
2017-07-31T02:00:08.489Z,98.20
2017-07-31T02:02:36.747Z,98.10
2017-07-31T02:05:05.004Z,98.00
2017-07-31T02:07:33.276Z,98.10
2017-07-31T02:10:01.527Z,97.70
2017-07-31T02:12:29.811Z,97.70
2017-07-31T02:14:58.076Z,98.00
2017-07-31T02:17:26.379Z,98.10
2017-07-31T02:19:54.643Z,98.10
2017-07-31T02:22:22.899Z,98.10
2017-07-31T02:24:51.174Z,98.60
2017-07-31T02:27:18.668Z,98.20
2017-07-31T02:29:47.015Z,98.50
2017-07-31T02:32:15.271Z,98.70
2017-07-31T02:34:43.523Z,98.70
2017-07-31T02:37:11.799Z,98.80
2017-07-31T02:39:40.059Z,98.60
2017-07-31T02:42:08.327Z,98.70
2017-07-31T02:44:36.625Z,98.50
2017-07-31T02:47:09.284Z,98.40
2017-07-31T02:49:37.780Z,98.60
2017-07-31T02:52:06.031Z,98.60
2017-07-31T02:54:34.283Z,98.50
2017-07-31T02:57:02.561Z,98.70
2017-07-31T02:59:30.043Z,98.70
2017-07-31T03:01:59.311Z,99.10
2017-07-31T03:04:27.576Z,99.10
2017-07-31T03:06:55.837Z,99.10
2017-07-31T03:09:24.132Z,99.10
2017-07-31T03:11:52.402Z,99.20
2017-07-31T03:14:20.691Z,99.60
2017-07-31T03:16:48.992Z,99.60
2017-07-31T03:19:17.253Z,99.80
2017-07-31T03:21:45.543Z,99.90
2017-07-31T03:24:13.796Z,99.80
2017-07-31T03:26:42.052Z,99.70
2017-07-31T03:29:10.325Z,99.40
2017-07-31T03:31:38.584Z,99.40
2017-07-31T03:34:06.878Z,99.60
2017-07-31T03:36:35.168Z,99.70
2017-07-31T03:39:03.463Z,99.60
2017-07-31T03:41:32.411Z,99.70
2017-07-31T03:44:00.683Z,99.70
2017-07-31T03:46:28.947Z,99.50
2017-07-31T03:48:57.220Z,99.20
2017-07-31T03:51:25.491Z,98.80
2017-07-31T03:53:53.750Z,98.80
2017-07-31T03:56:22.028Z,98.80
2017-07-31T03:58:50.285Z,98.90
2017-07-31T04:01:18.580Z,98.80
2017-07-31T04:03:46.840Z,99.10
2017-07-31T04:06:15.134Z,98.80
2017-07-31T04:08:43.395Z,98.80
2017-07-31T04:11:11.658Z,98.80
2017-07-31T04:13:39.931Z,98.70
2017-07-31T04:16:08.183Z,98.80
2017-07-31T04:18:36.456Z,98.60
2017-07-31T04:21:04.727Z,98.90
2017-07-31T04:23:32.983Z,98.90
2017-07-31T04:26:01.272Z,99.10
2017-07-31T04:28:29.535Z,99.10
2017-07-31T04:30:57.816Z,99.30
2017-07-31T04:33:26.071Z,99.40
2017-07-31T04:35:54.653Z,99.60
2017-07-31T04:38:22.919Z,99.70
2017-07-31T04:40:51.188Z,99.90
2017-07-31T04:43:19.462Z,99.90
2017-07-31T04:45:47.739Z,99.90
2017-07-31T04:48:16.049Z,99.90
2017-07-31T04:50:44.319Z,99.90
2017-07-31T04:53:12.584Z,99.90
2017-07-31T04:55:40.858Z,99.90
2017-07-31T04:58:09.122Z,99.90
2017-07-31T05:00:37.403Z,99.90
2017-07-31T05:03:05.667Z,99.90
2017-07-31T05:05:33.947Z,99.90
2017-07-31T05:08:02.199Z,99.90
2017-07-31T05:10:30.480Z,99.90
2017-07-31T05:12:58.746Z,99.90
2017-07-31T05:15:27.046Z,99.90
2017-07-31T05:17:55.345Z,99.90
2017-07-31T05:20:23.600Z,99.90
2017-07-31T05:22:51.855Z,99.90
2017-07-31T05:25:20.141Z,99.90
2017-07-31T05:27:48.421Z,99.90
2017-07-31T05:30:16.680Z,99.90
2017-07-31T05:32:44.967Z,99.90
2017-07-31T05:35:13.223Z,99.90
2017-07-31T05:37:41.532Z,99.90
2017-07-31T05:40:09.797Z,99.90
2017-07-31T05:42:38.053Z,99.90
2017-07-31T05:45:06.348Z,99.90
2017-07-31T05:47:34.603Z,99.90
2017-07-31T05:50:02.874Z,99.90
2017-07-31T05:52:31.173Z,99.60
2017-07-31T05:54:59.435Z,98.90
2017-07-31T05:57:27.687Z,98.50
2017-07-31T05:59:56.011Z,99.00
2017-07-31T06:02:24.263Z,99.80
2017-07-31T06:04:52.523Z,99.90
2017-07-31T06:07:20.803Z,99.90
2017-07-31T06:09:49.059Z,99.90
2017-07-31T06:12:17.363Z,99.90
2017-07-31T06:14:45.627Z,99.70
2017-07-31T06:17:13.884Z,99.60
2017-07-31T06:19:42.167Z,99.80
2017-07-31T06:22:10.423Z,99.90
2017-07-31T06:24:38.716Z,99.90
2017-07-31T06:27:06.973Z,99.90
2017-07-31T06:29:35.227Z,99.60
2017-07-31T06:32:03.523Z,99.30
2017-07-31T06:34:31.783Z,98.80
2017-07-31T06:37:00.042Z,99.20
2017-07-31T06:39:28.328Z,98.90
2017-07-31T06:41:56.655Z,97.70
2017-07-31T06:44:24.908Z,96.80
2017-07-31T06:46:53.160Z,97.00
2017-07-31T06:49:21.432Z,96.60
2017-07-31T06:51:49.695Z,97.10
2017-07-31T06:54:18.001Z,95.00
2017-07-31T06:56:46.259Z,94.90
2017-07-31T06:59:14.511Z,93.80
2017-07-31T07:01:42.806Z,94.00
2017-07-31T07:04:11.064Z,93.50
2017-07-31T07:06:39.366Z,92.70
2017-07-31T07:09:07.952Z,92.40
2017-07-31T07:11:36.222Z,92.30
2017-07-31T07:14:04.508Z,92.40
2017-07-31T07:16:32.774Z,92.20
2017-07-31T07:19:01.056Z,92.50
2017-07-31T07:21:29.340Z,92.20
2017-07-31T07:23:57.619Z,91.90
2017-07-31T07:26:25.911Z,93.30
2017-07-31T07:28:54.171Z,93.00
2017-07-31T07:31:22.471Z,92.10
2017-07-31T07:33:50.736Z,91.30
2017-07-31T07:36:19.003Z,91.10
2017-07-31T07:38:47.283Z,90.80
2017-07-31T07:41:15.537Z,90.80
2017-07-31T07:43:43.843Z,89.20
2017-07-31T07:46:12.095Z,89.20
2017-07-31T07:48:40.355Z,90.00
2017-07-31T07:51:08.636Z,90.60
2017-07-31T07:53:36.927Z,90.20
2017-07-31T07:56:05.187Z,90.30
2017-07-31T07:58:33.439Z,90.40
2017-07-31T08:01:01.736Z,90.30
2017-07-31T08:03:29.993Z,88.60
2017-07-31T08:05:58.243Z,87.70
2017-07-31T08:08:26.520Z,88.50
2017-07-31T08:10:54.767Z,86.70
2017-07-31T08:13:23.112Z,86.30
2017-07-31T08:15:51.363Z,86.40
2017-07-31T08:18:19.611Z,87.00
2017-07-31T08:20:47.897Z,86.50
2017-07-31T08:23:16.180Z,84.80
2017-07-31T08:25:44.468Z,84.30
2017-07-31T08:28:12.712Z,82.50
2017-07-31T08:30:41.004Z,83.10
2017-07-31T08:33:09.275Z,84.00
2017-07-31T08:35:37.531Z,81.60
2017-07-31T08:38:05.061Z,81.60
2017-07-31T08:40:33.319Z,81.20
2017-07-31T08:43:01.568Z,79.50
2017-07-31T08:45:29.866Z,79.00
2017-07-31T08:47:58.129Z,80.70
2017-07-31T08:50:26.380Z,80.70
2017-07-31T08:52:54.659Z,80.50
2017-07-31T08:55:22.932Z,81.70
2017-07-31T08:57:51.230Z,81.40
2017-07-31T09:00:19.499Z,79.80
2017-07-31T09:02:47.824Z,78.10
2017-07-31T09:05:16.089Z,78.30
2017-07-31T09:07:44.344Z,80.60
2017-07-31T09:10:12.634Z,78.10
2017-07-31T09:12:41.535Z,78.30
2017-07-31T09:15:10.529Z,77.20
2017-07-31T09:17:38.025Z,77.20
2017-07-31T09:20:05.515Z,78.50
2017-07-31T09:22:33.795Z,79.80
2017-07-31T09:25:02.095Z,79.70
2017-07-31T09:27:30.351Z,79.20
2017-07-31T09:29:58.607Z,78.70
2017-07-31T09:32:26.904Z,78.90
2017-07-31T09:34:55.163Z,78.50
2017-07-31T09:37:23.410Z,79.40
2017-07-31T09:39:51.675Z,78.50
2017-07-31T09:42:19.933Z,78.60
2017-07-31T09:44:47.471Z,78.60
2017-07-31T09:47:15.727Z,79.10
2017-07-31T09:49:43.216Z,79.00
2017-07-31T09:52:11.503Z,77.50
2017-07-31T09:54:39.754Z,78.30
2017-07-31T09:57:08.059Z,78.90
2017-07-31T09:59:36.307Z,78.80
2017-07-31T10:02:04.563Z,78.20
2017-07-31T10:04:32.096Z,78.20
2017-07-31T10:07:00.355Z,78.00
2017-07-31T10:09:28.641Z,78.30
2017-07-31T10:11:56.892Z,79.60
2017-07-31T10:14:25.184Z,79.40
2017-07-31T10:16:53.447Z,78.40
2017-07-31T10:19:21.707Z,77.30
2017-07-31T10:21:50.006Z,76.00
2017-07-31T10:24:18.259Z,78.10
2017-07-31T10:26:46.511Z,77.70
2017-07-31T10:29:14.797Z,77.40
2017-07-31T10:31:43.052Z,80.10
2017-07-31T10:34:11.341Z,79.00
2017-07-31T10:36:39.604Z,78.50
2017-07-31T10:39:07.905Z,77.90
2017-07-31T10:41:36.161Z,79.30
2017-07-31T10:44:04.419Z,77.80
2017-07-31T10:46:32.707Z,78.20
2017-07-31T10:49:00.965Z,77.80
2017-07-31T10:51:29.228Z,78.40
2017-07-31T10:53:57.522Z,78.50
2017-07-31T10:56:25.808Z,77.20
2017-07-31T10:58:54.131Z,77.40
2017-07-31T11:01:22.389Z,78.30
2017-07-31T11:03:50.647Z,75.40
2017-07-31T11:06:18.951Z,76.20
2017-07-31T11:08:47.207Z,72.60
2017-07-31T11:11:15.465Z,72.40
2017-07-31T11:13:43.767Z,74.10
2017-07-31T11:16:11.267Z,74.10
2017-07-31T11:18:39.512Z,72.40
2017-07-31T11:21:07.785Z,74.20
2017-07-31T11:23:36.040Z,73.00
2017-07-31T11:26:04.327Z,71.70
2017-07-31T11:28:32.586Z,75.50
2017-07-31T11:31:00.836Z,74.70
2017-07-31T11:33:29.121Z,72.80
2017-07-31T11:35:57.423Z,73.20
2017-07-31T11:38:25.685Z,73.30
2017-07-31T11:40:53.941Z,73.00
2017-07-31T11:43:22.204Z,74.80
2017-07-31T11:45:50.508Z,74.90
2017-07-31T11:48:18.772Z,70.20
2017-07-31T11:50:47.021Z,72.20
2017-07-31T11:53:15.324Z,70.80
2017-07-31T11:55:43.579Z,71.30
2017-07-31T11:58:11.833Z,69.30
2017-07-31T12:00:40.174Z,68.70
2017-07-31T12:03:08.427Z,66.10
2017-07-31T12:05:35.924Z,66.00
2017-07-31T12:08:04.244Z,68.80
2017-07-31T12:10:32.492Z,66.30
2017-07-31T12:13:00.800Z,67.50
2017-07-31T12:15:29.058Z,67.90
2017-07-31T12:17:57.310Z,71.80
2017-07-31T12:20:25.620Z,69.50
2017-07-31T12:22:53.881Z,70.60
2017-07-31T12:25:22.132Z,69.60
2017-07-31T12:27:50.417Z,69.10
2017-07-31T12:30:18.679Z,70.90
2017-07-31T12:32:46.963Z,68.90
2017-07-31T12:35:15.219Z,70.00
2017-07-31T12:37:43.471Z,69.80
2017-07-31T12:40:11.755Z,70.70
2017-07-31T12:42:40.012Z,68.60
2017-07-31T12:45:08.288Z,67.70
2017-07-31T12:47:35.826Z,67.70
2017-07-31T12:50:04.076Z,67.00
2017-07-31T12:52:32.330Z,65.50
2017-07-31T12:55:00.597Z,67.40
2017-07-31T12:57:28.850Z,65.10
2017-07-31T12:59:57.138Z,64.50
2017-07-31T13:02:25.396Z,61.30
2017-07-31T13:04:53.688Z,61.90
2017-07-31T13:07:21.941Z,61.10
2017-07-31T13:09:50.199Z,60.00
2017-07-31T13:12:18.504Z,59.20
2017-07-31T13:14:46.771Z,60.40
2017-07-31T13:17:15.032Z,60.20
2017-07-31T13:19:43.328Z,57.20
2017-07-31T13:22:11.587Z,57.50
2017-07-31T13:24:39.840Z,58.90
2017-07-31T13:27:08.141Z,58.80
2017-07-31T13:29:36.388Z,58.20
2017-07-31T13:32:04.643Z,58.00
2017-07-31T13:34:32.937Z,58.70
2017-07-31T13:37:01.196Z,61.20
2017-07-31T13:39:29.456Z,64.30
2017-07-31T13:41:57.747Z,61.20
2017-07-31T13:44:26.001Z,59.70
2017-07-31T13:46:54.256Z,59.40
2017-07-31T13:49:22.563Z,58.50
2017-07-31T13:51:50.811Z,58.30
2017-07-31T13:54:19.062Z,59.10
2017-07-31T13:56:47.325Z,58.70
2017-07-31T13:59:15.581Z,58.90
2017-07-31T14:01:43.883Z,59.10
2017-07-31T14:04:11.376Z,59.10
2017-07-31T14:06:39.632Z,60.50
2017-07-31T14:09:07.933Z,59.40
2017-07-31T14:11:36.195Z,59.20
2017-07-31T14:14:04.452Z,56.60
2017-07-31T14:16:32.760Z,55.80
2017-07-31T14:19:01.020Z,57.60
2017-07-31T14:21:29.279Z,58.60
2017-07-31T14:23:57.552Z,57.50
2017-07-31T14:26:25.804Z,58.30
2017-07-31T14:28:54.099Z,59.40
2017-07-31T14:31:22.370Z,57.00
2017-07-31T14:33:50.619Z,56.90
2017-07-31T14:36:18.899Z,55.60
2017-07-31T14:38:47.171Z,57.00
2017-07-31T14:41:15.427Z,57.20
2017-07-31T14:43:43.747Z,57.20
2017-07-31T14:46:11.999Z,56.40
2017-07-31T14:48:40.260Z,56.40
2017-07-31T14:51:08.547Z,57.90
2017-07-31T14:53:36.795Z,58.90
2017-07-31T14:56:05.075Z,57.40
2017-07-31T14:58:33.325Z,56.20
2017-07-31T15:01:01.611Z,56.50
2017-07-31T15:03:29.884Z,58.20
2017-07-31T15:05:58.137Z,56.80
2017-07-31T15:08:26.419Z,56.80
2017-07-31T15:10:54.671Z,56.90
2017-07-31T15:13:22.953Z,58.20
2017-07-31T15:15:51.211Z,58.10
2017-07-31T15:18:19.516Z,58.30
2017-07-31T15:20:47.779Z,55.70
2017-07-31T15:23:16.040Z,56.70
2017-07-31T15:25:44.317Z,55.00
2017-07-31T15:28:12.581Z,55.40
2017-07-31T15:30:40.107Z,55.40
2017-07-31T15:33:08.363Z,55.80
2017-07-31T15:35:36.650Z,56.00
2017-07-31T15:38:04.926Z,57.30
2017-07-31T15:40:33.176Z,56.50
2017-07-31T15:43:01.450Z,59.40
2017-07-31T15:45:29.724Z,57.30
2017-07-31T15:47:58.012Z,58.90
2017-07-31T15:50:26.267Z,57.30
2017-07-31T15:52:54.524Z,57.80
2017-07-31T15:55:22.801Z,58.90
2017-07-31T15:57:51.047Z,60.30
2017-07-31T16:00:19.351Z,60.50
2017-07-31T16:02:47.607Z,59.20
2017-07-31T16:05:15.866Z,59.50
2017-07-31T16:07:44.135Z,58.30
2017-07-31T16:10:12.392Z,60.60
2017-07-31T16:12:40.667Z,60.60
2017-07-31T16:15:08.943Z,60.40
2017-07-31T16:17:37.198Z,59.40
2017-07-31T16:20:05.499Z,59.80
2017-07-31T16:22:33.753Z,60.60
2017-07-31T16:25:02.011Z,61.30
2017-07-31T16:27:30.284Z,61.10
2017-07-31T16:29:58.540Z,59.00
2017-07-31T16:32:26.807Z,60.20
2017-07-31T16:34:55.063Z,58.60
2017-07-31T16:37:39.262Z,58.60
2017-07-31T16:40:26.336Z,58.60
2017-07-31T16:43:06.480Z,58.10
2017-07-31T16:45:39.748Z,58.20
2017-07-31T16:48:19.927Z,58.30
2017-07-31T16:50:48.200Z,58.70
2017-07-31T16:53:16.484Z,58.10
2017-07-31T16:55:44.775Z,59.50
2017-07-31T16:58:13.044Z,58.90
2017-07-31T17:00:41.352Z,59.50
2017-07-31T17:03:09.618Z,60.20
2017-07-31T17:05:37.875Z,60.70
2017-07-31T17:08:06.171Z,59.50
2017-07-31T17:10:34.432Z,63.00
2017-07-31T17:13:02.696Z,61.00
2017-07-31T17:15:31.031Z,59.20
2017-07-31T17:17:59.283Z,58.60
2017-07-31T17:20:27.539Z,59.10
2017-07-31T17:22:55.880Z,58.40
2017-07-31T17:25:24.188Z,59.30
2017-07-31T17:27:52.455Z,59.60
2017-07-31T17:30:20.753Z,60.30
2017-07-31T17:32:49.040Z,58.30
2017-07-31T17:35:17.335Z,58.50
2017-07-31T17:37:45.583Z,60.40
2017-07-31T17:40:13.836Z,59.30
2017-07-31T17:42:42.128Z,58.00
2017-07-31T17:45:10.388Z,59.60
2017-07-31T17:47:38.679Z,59.30
2017-07-31T17:50:06.189Z,59.30
2017-07-31T17:52:34.489Z,65.60
2017-07-31T17:55:02.747Z,66.10
2017-07-31T17:57:31.016Z,62.10
2017-07-31T17:59:59.320Z,66.30
2017-07-31T18:02:27.580Z,68.30
2017-07-31T18:04:55.839Z,65.70
2017-07-31T18:07:24.144Z,68.70
2017-07-31T18:09:52.407Z,67.40
2017-07-31T18:12:20.667Z,71.70
2017-07-31T18:14:48.952Z,72.30
2017-07-31T18:17:17.203Z,72.20
2017-07-31T18:19:45.497Z,72.50
2017-07-31T18:22:13.799Z,70.10
2017-07-31T18:24:42.060Z,70.20
2017-07-31T18:27:10.323Z,71.20
2017-07-31T18:29:38.633Z,71.30
2017-07-31T18:32:06.910Z,71.20
2017-07-31T18:34:35.265Z,71.70
2017-07-31T18:37:03.560Z,70.50
2017-07-31T18:39:33.762Z,69.50
2017-07-31T18:42:02.061Z,69.50
2017-07-31T18:44:30.328Z,70.30
2017-07-31T18:46:58.599Z,72.00
2017-07-31T18:49:26.892Z,69.40
2017-07-31T18:51:58.526Z,69.50
2017-07-31T18:54:26.063Z,69.60
2017-07-31T18:56:54.324Z,69.70
2017-07-31T18:59:22.611Z,72.20
2017-07-31T19:01:50.888Z,72.50
2017-07-31T19:04:20.215Z,74.30
2017-07-31T19:06:48.540Z,75.00
2017-07-31T19:09:16.796Z,75.10
2017-07-31T19:11:45.056Z,74.70
2017-07-31T19:14:12.588Z,73.90
2017-07-31T19:16:42.830Z,74.70
2017-07-31T19:19:11.128Z,74.50
2017-07-31T19:21:45.315Z,74.30
2017-07-31T19:24:13.644Z,75.50
2017-07-31T19:26:41.911Z,76.30
2017-07-31T19:29:10.177Z,76.40
2017-07-31T19:31:39.488Z,76.30
2017-07-31T19:34:07.746Z,76.40
2017-07-31T19:36:36.092Z,76.10
2017-07-31T19:39:04.451Z,76.00
2017-07-31T19:41:32.723Z,76.20
2017-07-31T19:44:01.027Z,77.00
2017-07-31T19:46:29.299Z,77.10
2017-07-31T19:48:57.570Z,78.50
2017-07-31T19:51:25.884Z,79.50
2017-07-31T19:53:54.152Z,79.30
2017-07-31T19:56:23.368Z,80.10
2017-07-31T19:58:51.682Z,80.50
2017-07-31T20:01:19.943Z,80.60
2017-07-31T20:03:48.268Z,80.90
2017-07-31T20:06:16.571Z,80.80
2017-07-31T20:08:46.869Z,80.20
2017-07-31T20:11:15.168Z,80.20
2017-07-31T20:13:43.492Z,82.30
2017-07-31T20:16:11.763Z,80.10
2017-07-31T20:18:40.073Z,80.30
2017-07-31T20:21:08.351Z,80.80
2017-07-31T20:23:36.616Z,81.60
2017-07-31T20:26:04.908Z,82.40
2017-07-31T20:28:33.167Z,83.70
2017-07-31T20:31:01.500Z,83.70
2017-07-31T20:33:29.761Z,82.90
2017-07-31T20:35:58.019Z,84.00
2017-07-31T20:38:26.324Z,83.20
2017-07-31T20:40:56.504Z,84.80
2017-07-31T20:43:24.779Z,85.90
2017-07-31T20:45:52.349Z,85.80
2017-07-31T20:48:20.608Z,84.00
2017-07-31T20:50:48.868Z,83.90
2017-07-31T20:53:17.144Z,84.70
2017-07-31T20:55:45.410Z,86.00
2017-07-31T20:58:13.692Z,86.60
2017-07-31T21:00:41.950Z,86.00
2017-07-31T21:03:10.237Z,85.20
2017-07-31T21:05:37.745Z,85.10
2017-07-31T21:08:06.025Z,85.70
2017-07-31T21:10:34.324Z,86.00
2017-07-31T21:13:02.588Z,86.50
2017-07-31T21:15:30.875Z,84.80
2017-07-31T21:17:59.162Z,85.40
2017-07-31T21:20:27.435Z,86.60
2017-07-31T21:22:55.716Z,85.90
2017-07-31T21:25:24.000Z,86.10
2017-07-31T21:27:52.331Z,86.30
2017-07-31T21:30:20.640Z,85.50
2017-07-31T21:32:48.900Z,85.00
2017-07-31T21:35:17.164Z,85.20
2017-07-31T21:37:44.665Z,85.20
2017-07-31T21:40:12.916Z,86.20
2017-07-31T21:42:41.188Z,85.60
2017-07-31T21:45:08.685Z,85.70
2017-07-31T21:47:36.967Z,85.50
2017-07-31T21:50:05.240Z,86.20
2017-07-31T21:52:33.493Z,86.80
2017-07-31T21:55:01.765Z,85.20
2017-07-31T21:57:30.019Z,85.10
2017-07-31T21:59:58.316Z,87.00
2017-07-31T22:02:26.571Z,86.40
2017-07-31T22:04:54.827Z,84.80
2017-07-31T22:07:23.140Z,84.70
2017-07-31T22:09:51.399Z,84.60
2017-07-31T22:12:19.656Z,84.80
2017-07-31T22:14:47.954Z,84.40
2017-07-31T22:17:21.831Z,84.80
2017-07-31T22:19:50.088Z,84.90
2017-07-31T22:22:18.345Z,84.70
2017-07-31T22:24:46.636Z,85.00
2017-07-31T22:27:14.939Z,83.90
2017-07-31T22:29:42.435Z,83.80
2017-07-31T22:32:10.700Z,84.80
2017-07-31T22:34:39.007Z,85.40
2017-07-31T22:37:07.259Z,86.60
2017-07-31T22:39:35.517Z,85.60
2017-07-31T22:42:03.792Z,86.00
2017-07-31T22:44:32.048Z,87.30
2017-07-31T22:47:00.344Z,89.40
2017-07-31T22:49:28.603Z,89.10
2017-07-31T22:51:56.860Z,89.80
2017-07-31T22:54:25.163Z,90.10
2017-07-31T22:56:53.429Z,89.60
2017-07-31T22:59:21.712Z,89.30
2017-07-31T23:01:50.008Z,90.20
2017-07-31T23:04:18.270Z,89.90
2017-07-31T23:06:46.531Z,90.30
2017-07-31T23:09:14.824Z,90.40
2017-07-31T23:11:43.088Z,90.40
2017-07-31T23:14:11.400Z,90.90
2017-07-31T23:16:38.892Z,90.90
2017-07-31T23:19:07.186Z,90.40
2017-07-31T23:21:35.440Z,90.10
2017-07-31T23:24:02.944Z,90.10
2017-07-31T23:26:31.228Z,90.60
2017-07-31T23:28:59.485Z,91.00
2017-07-31T23:31:27.759Z,88.50
2017-07-31T23:33:56.060Z,89.90
2017-07-31T23:36:24.351Z,88.70
2017-07-31T23:38:52.651Z,86.30
2017-07-31T23:41:20.899Z,88.00
2017-07-31T23:43:49.171Z,87.10
2017-07-31T23:46:17.515Z,87.10
2017-07-31T23:48:45.779Z,87.00
2017-07-31T23:51:14.033Z,87.40
2017-07-31T23:53:42.317Z,88.10
2017-07-31T23:56:10.578Z,87.50
2017-07-31T23:58:38.858Z,85.50
